РегистрацияВход
[ Новые сообщения · Участники · Правила форума · Поиск · RSS ]
  • Страница 3 из 3
  • «
  • 1
  • 2
  • 3
Модератор форума: Edpru, Geurza, GUMAR, Vint40  
Форум » Летное поле » Класс общей предполетной подготовки » СБоры 26-27.01.2013 после "лентяек"
СБоры 26-27.01.2013 после "лентяек"
334-CountДата: Суббота, 26.01.2013, 19:51 | Сообщение # 21
Майор
Группа: Администраторы
Сообщений: 1082
Награды: 4
Репутация: 33
Статус: Offline
На пальцах объяснишь, что ты не Хуан smile Ногами пролетим smile

=TMS=334=Count, начальник ИАС в/ч 1252
 
266-DEMДата: Воскресенье, 27.01.2013, 04:36 | Сообщение # 22
Капитан
Группа: Пользователи
Сообщений: 333
Награды: 2
Репутация: 9
Статус: Offline
Цитата
На пальцах объяснишь, что ты не Хуан Ногами пролетим  У меня самих миссий не осталось :(
 
334-CountДата: Воскресенье, 27.01.2013, 10:43 | Сообщение # 23
Майор
Группа: Администраторы
Сообщений: 1082
Награды: 4
Репутация: 33
Статус: Offline
Да я тебя помнял тогда, я с грустью, смайлом ошибся. у тебя на диске ц чтоли все было или винт тупо умер, я просто не помню. Ну так то если чегодня вертикальноые помимо меня придут можно будет чуть серьезней пролететь.
Погода
URKK 270700Z 10006G09MPS 9999 FEW046 BKN080 08/03 Q1010 NOSIG RMK QFE754 SC070=
Круг левый, рабочая 90.


=TMS=334=Count, начальник ИАС в/ч 1252
 
Форум » Летное поле » Класс общей предполетной подготовки » СБоры 26-27.01.2013 после "лентяек"
  • Страница 3 из 3
  • «
  • 1
  • 2
  • 3
Поиск: